createdAt,value
2019-05-14T00:00:41.742Z,25.02
2019-05-14T00:03:16.151Z,25.03
2019-05-14T00:05:51.876Z,25.02
2019-05-14T00:08:26.188Z,25.03
2019-05-14T00:11:01.417Z,24.98
2019-05-14T00:13:35.791Z,24.89
2019-05-14T00:16:11.845Z,25.01
2019-05-14T00:18:46.073Z,25.04
2019-05-14T00:21:21.108Z,25.03
2019-05-14T00:23:55.131Z,25.02
2019-05-14T00:26:29.184Z,25.01
2019-05-14T00:29:03.373Z,25.01
2019-05-14T00:31:37.593Z,25.01
2019-05-14T00:34:11.824Z,25.00
2019-05-14T00:36:46.897Z,25.01
2019-05-14T00:39:21.414Z,25.02
2019-05-14T00:41:55.956Z,24.97
2019-05-14T00:44:32.155Z,24.90
2019-05-14T00:47:06.402Z,24.98
2019-05-14T00:49:42.469Z,25.03
2019-05-14T00:52:17.006Z,25.05
2019-05-14T00:54:52.246Z,25.03
2019-05-14T00:57:26.886Z,25.02
2019-05-14T01:00:01.280Z,24.99
2019-05-14T01:02:35.663Z,25.00
2019-05-14T01:05:12.431Z,24.98
2019-05-14T01:07:46.489Z,25.05
2019-05-14T01:10:22.182Z,25.05
2019-05-14T01:12:56.605Z,25.01
2019-05-14T01:15:32.248Z,24.94
2019-05-14T01:18:07.020Z,24.97
2019-05-14T01:20:41.281Z,24.96
2019-05-14T01:23:15.566Z,24.98
2019-05-14T01:25:51.454Z,24.98
2019-05-14T01:28:24.921Z,24.94
2019-05-14T01:31:01.011Z,24.98
2019-05-14T01:33:34.639Z,24.95
2019-05-14T01:36:08.830Z,24.95
2019-05-14T01:38:43.042Z,24.98
2019-05-14T01:41:17.184Z,24.96
2019-05-14T01:43:51.491Z,24.89
2019-05-14T01:46:25.699Z,24.86
2019-05-14T01:49:01.549Z,24.93
2019-05-14T01:51:36.440Z,24.99
2019-05-14T01:54:11.908Z,25.03
2019-05-14T01:56:46.837Z,25.05
2019-05-14T01:59:21.299Z,25.05
2019-05-14T02:01:55.475Z,25.08
2019-05-14T02:04:31.660Z,25.07
2019-05-14T02:07:05.347Z,25.06
2019-05-14T02:09:41.789Z,25.06
2019-05-14T02:12:15.599Z,25.06
2019-05-14T02:14:51.215Z,24.97
2019-05-14T02:17:25.645Z,24.91
2019-05-14T02:20:01.863Z,25.03
2019-05-14T02:22:35.738Z,25.07
2019-05-14T02:25:11.627Z,25.09
2019-05-14T02:27:46.277Z,25.13
2019-05-14T02:30:28.551Z,25.08
2019-05-14T02:32:59.420Z,25.01
2019-05-14T02:35:32.319Z,25.02
2019-05-14T02:38:10.117Z,25.00
2019-05-14T02:40:42.607Z,24.98
2019-05-14T02:43:19.638Z,24.99
2019-05-14T02:46:09.491Z,24.88
2019-05-14T02:48:29.464Z,24.89
2019-05-14T02:51:03.877Z,25.00
2019-05-14T02:53:39.159Z,25.02
2019-05-14T02:56:13.357Z,25.06
2019-05-14T02:58:49.871Z,25.01
2019-05-14T03:01:23.550Z,25.08
2019-05-14T03:03:59.854Z,25.08
2019-05-14T03:06:33.623Z,25.03
2019-05-14T03:09:09.754Z,25.02
2019-05-14T03:11:44.054Z,25.01
2019-05-14T03:14:19.610Z,25.01
2019-05-14T03:16:53.960Z,24.88
2019-05-14T03:19:29.789Z,24.90
2019-05-14T03:22:04.089Z,24.98
2019-05-14T03:24:39.693Z,25.02
2019-05-14T03:27:14.541Z,25.06
2019-05-14T03:29:50.188Z,25.06
2019-05-14T03:32:24.566Z,25.07
2019-05-14T03:35:03.655Z,25.10
2019-05-14T03:37:35.166Z,25.08
2019-05-14T03:40:10.420Z,25.16
2019-05-14T03:42:44.663Z,25.09
2019-05-14T03:45:25.022Z,25.03
2019-05-14T03:48:00.574Z,24.91
2019-05-14T03:50:35.000Z,24.92
2019-05-14T03:53:10.170Z,24.98
2019-05-14T03:55:45.514Z,25.02
2019-05-14T03:58:21.078Z,25.13
2019-05-14T04:01:01.103Z,25.51
2019-05-14T04:03:39.629Z,25.93
2019-05-14T04:06:13.248Z,26.13
2019-05-14T04:08:49.708Z,26.36
2019-05-14T04:11:29.192Z,26.38
2019-05-14T04:14:04.648Z,26.41
2019-05-14T04:16:59.526Z,26.48
2019-05-14T04:19:19.029Z,26.53
2019-05-14T04:21:54.225Z,26.57
2019-05-14T04:24:31.225Z,26.61
2019-05-14T04:27:11.744Z,26.66
2019-05-14T04:29:44.050Z,26.71
2019-05-14T04:32:20.247Z,26.76
2019-05-14T04:34:54.497Z,26.80
2019-05-14T04:37:29.157Z,26.83
2019-05-14T04:40:03.977Z,26.90
2019-05-14T04:42:40.106Z,26.92
2019-05-14T04:45:13.540Z,26.96
2019-05-14T04:47:49.910Z,26.94
2019-05-14T04:50:25.532Z,26.96
2019-05-14T04:52:59.906Z,26.98
2019-05-14T04:55:34.072Z,27.01
2019-05-14T04:58:10.103Z,27.04
2019-05-14T05:00:44.155Z,27.10
2019-05-14T05:03:19.994Z,27.14
2019-05-14T05:05:54.612Z,27.20
2019-05-14T05:08:30.405Z,27.49
2019-05-14T05:11:05.011Z,27.37
2019-05-14T05:13:39.893Z,27.35
2019-05-14T05:16:14.654Z,27.32
2019-05-14T05:18:49.503Z,27.34
2019-05-14T05:21:23.818Z,27.42
2019-05-14T05:23:58.514Z,27.39
2019-05-14T05:26:32.679Z,27.41
2019-05-14T05:29:10.240Z,27.43
2019-05-14T05:31:42.941Z,27.44
2019-05-14T05:34:19.198Z,27.46
2019-05-14T05:36:54.130Z,27.48
2019-05-14T05:39:30.358Z,27.49
2019-05-14T05:42:04.886Z,27.52
2019-05-14T05:44:39.651Z,27.56
2019-05-14T05:47:14.493Z,27.58
2019-05-14T05:49:49.031Z,27.60
2019-05-14T05:52:23.509Z,27.63
2019-05-14T05:54:58.344Z,27.62
2019-05-14T05:57:32.666Z,27.64
2019-05-14T06:00:09.412Z,27.63
2019-05-14T06:02:44.103Z,27.74
2019-05-14T06:05:19.512Z,27.75
2019-05-14T06:07:53.806Z,27.69
2019-05-14T06:10:29.095Z,27.65
2019-05-14T06:13:03.892Z,27.63
2019-05-14T06:15:45.619Z,27.63
2019-05-14T06:18:19.431Z,27.64
2019-05-14T06:20:51.756Z,27.63
2019-05-14T06:23:28.456Z,27.64
2019-05-14T06:26:02.496Z,27.63
2019-05-14T06:28:40.370Z,27.64
2019-05-14T06:31:13.052Z,27.64
2019-05-14T06:33:48.654Z,27.65
2019-05-14T06:36:24.180Z,27.66
2019-05-14T06:38:58.765Z,27.66
2019-05-14T06:41:33.074Z,27.73
2019-05-14T06:44:09.179Z,27.75
2019-05-14T06:46:43.402Z,27.88
2019-05-14T06:49:18.353Z,27.84
2019-05-14T06:51:52.686Z,27.86
2019-05-14T06:54:29.125Z,27.88
2019-05-14T06:57:02.847Z,27.88
2019-05-14T06:59:38.088Z,27.90
2019-05-14T07:02:12.615Z,27.93
2019-05-14T07:04:48.514Z,28.00
2019-05-14T07:07:23.222Z,28.00
2019-05-14T07:09:58.176Z,27.98
2019-05-14T07:12:32.559Z,27.97
2019-05-14T07:15:09.033Z,27.96
2019-05-14T07:17:42.497Z,27.99
2019-05-14T07:20:18.926Z,28.02
2019-05-14T07:22:53.788Z,28.02
2019-05-14T07:25:29.260Z,28.06
2019-05-14T07:28:03.422Z,28.08
2019-05-14T07:30:39.646Z,28.18
2019-05-14T07:33:13.920Z,28.23
2019-05-14T07:35:48.809Z,28.25
2019-05-14T07:38:23.218Z,28.22
2019-05-14T07:40:58.521Z,28.23
2019-05-14T07:43:33.114Z,28.24
2019-05-14T07:46:08.528Z,28.28
2019-05-14T07:48:42.992Z,28.30
2019-05-14T07:51:19.062Z,28.32
2019-05-14T07:53:53.785Z,28.33
2019-05-14T07:56:29.276Z,28.34
2019-05-14T07:59:05.361Z,28.35
2019-05-14T08:01:40.678Z,28.42
2019-05-14T08:04:17.892Z,28.48
2019-05-14T08:06:52.598Z,28.43
2019-05-14T08:09:28.241Z,28.45
2019-05-14T08:12:03.467Z,28.44
2019-05-14T08:14:46.130Z,28.44
2019-05-14T08:17:14.031Z,28.47
2019-05-14T08:19:49.105Z,28.46
2019-05-14T08:22:23.712Z,28.47
2019-05-14T08:24:58.196Z,28.50
2019-05-14T08:27:32.398Z,28.54
2019-05-14T08:30:08.220Z,28.54
2019-05-14T08:32:42.609Z,28.59
2019-05-14T08:35:18.541Z,28.59
2019-05-14T08:38:04.704Z,28.62
2019-05-14T08:40:28.887Z,28.65
2019-05-14T08:43:03.301Z,28.65
2019-05-14T08:45:38.913Z,28.68
2019-05-14T08:48:14.224Z,28.68
2019-05-14T08:50:49.178Z,28.72
2019-05-14T08:53:23.454Z,28.76
2019-05-14T08:55:58.799Z,28.79
2019-05-14T08:58:33.568Z,28.82
2019-05-14T09:01:08.386Z,28.84
2019-05-14T09:03:42.961Z,28.86
2019-05-14T09:06:18.626Z,28.87
2019-05-14T09:08:53.172Z,28.91
2019-05-14T09:11:34.318Z,28.97
2019-05-14T09:14:03.729Z,28.98
2019-05-14T09:16:46.283Z,29.03
2019-05-14T09:19:14.158Z,28.99
2019-05-14T09:21:49.662Z,28.99
2019-05-14T09:24:24.439Z,28.99
2019-05-14T09:26:59.389Z,28.99
2019-05-14T09:29:33.607Z,29.00
2019-05-14T09:32:09.635Z,29.06
2019-05-14T09:34:48.640Z,29.06
2019-05-14T09:37:23.442Z,29.04
2019-05-14T09:40:04.829Z,29.09
2019-05-14T09:42:41.713Z,29.10
2019-05-14T09:45:31.863Z,29.17
2019-05-14T09:48:18.084Z,29.20
2019-05-14T09:51:18.228Z,29.21
2019-05-14T09:54:02.944Z,28.15
2019-05-14T09:57:05.379Z,28.15
2019-05-14T09:59:48.925Z,27.47
2019-05-14T10:02:34.622Z,26.91
2019-05-14T10:05:22.077Z,26.75
2019-05-14T10:08:08.970Z,26.52
2019-05-14T10:11:00.869Z,26.64
2019-05-14T10:13:59.908Z,26.47
2019-05-14T10:16:49.191Z,26.31
2019-05-14T10:19:38.901Z,26.31
2019-05-14T10:22:22.726Z,26.22
2019-05-14T10:25:12.234Z,26.31
2019-05-14T10:28:04.065Z,26.12
2019-05-14T10:30:49.364Z,26.04
2019-05-14T10:33:38.822Z,25.96
2019-05-14T10:36:14.736Z,26.02
2019-05-14T10:38:49.099Z,25.94
2019-05-14T10:41:23.302Z,25.92
2019-05-14T10:43:58.933Z,26.02
2019-05-14T10:46:33.517Z,25.92
2019-05-14T10:49:17.427Z,25.93
2019-05-14T10:51:43.767Z,25.86
2019-05-14T10:54:24.986Z,25.71
2019-05-14T10:56:54.563Z,25.73
2019-05-14T10:59:29.431Z,25.51
2019-05-14T11:02:03.832Z,25.61
2019-05-14T11:04:38.918Z,25.52
2019-05-14T11:07:13.287Z,25.49
2019-05-14T11:09:48.642Z,25.55
2019-05-14T11:12:23.090Z,25.45
2019-05-14T11:14:57.504Z,25.45
2019-05-14T11:17:31.564Z,25.35
2019-05-14T11:20:08.075Z,25.33
2019-05-14T11:22:42.631Z,25.29
2019-05-14T11:25:19.582Z,25.37
2019-05-14T11:27:53.807Z,25.18
2019-05-14T11:30:28.751Z,25.18
2019-05-14T11:33:03.017Z,25.21
2019-05-14T11:35:39.406Z,25.24
2019-05-14T11:38:28.444Z,25.17
2019-05-14T11:40:50.018Z,25.06
2019-05-14T11:43:24.781Z,25.16
2019-05-14T11:45:59.486Z,25.17
2019-05-14T11:48:33.848Z,25.09
2019-05-14T11:51:08.970Z,25.10
2019-05-14T11:53:43.499Z,25.05
2019-05-14T11:56:19.388Z,25.08
2019-05-14T11:58:53.836Z,25.10
2019-05-14T12:01:29.801Z,25.01
2019-05-14T12:04:04.290Z,25.01
2019-05-14T12:06:39.270Z,25.00
2019-05-14T12:09:13.545Z,25.02
2019-05-14T12:11:47.652Z,25.01
2019-05-14T12:14:21.989Z,24.88
2019-05-14T12:16:56.291Z,24.98
2019-05-14T12:19:30.351Z,24.90
2019-05-14T12:22:08.564Z,24.97
2019-05-14T12:24:41.978Z,24.95
2019-05-14T12:27:19.151Z,24.90
2019-05-14T12:29:53.344Z,24.90
2019-05-14T12:32:29.525Z,24.86
2019-05-14T12:35:03.680Z,24.79
2019-05-14T12:37:38.841Z,24.88
2019-05-14T12:40:13.298Z,25.02
2019-05-14T12:42:49.837Z,24.88
2019-05-14T12:45:23.754Z,25.07
2019-05-14T12:47:58.543Z,25.14
2019-05-14T12:50:32.954Z,25.13
2019-05-14T12:53:08.364Z,25.05
2019-05-14T12:55:42.630Z,24.96
2019-05-14T12:58:19.989Z,24.86
2019-05-14T13:00:52.527Z,24.81
2019-05-14T13:03:28.493Z,24.87
2019-05-14T13:06:02.618Z,24.82
2019-05-14T13:08:38.753Z,24.77
2019-05-14T13:11:13.109Z,25.93
2019-05-14T13:13:48.987Z,26.82
2019-05-14T13:16:24.202Z,27.17
2019-05-14T13:18:59.852Z,27.46
2019-05-14T13:21:34.812Z,27.65
2019-05-14T13:24:09.188Z,27.81
2019-05-14T13:27:09.246Z,27.95
2019-05-14T13:29:42.828Z,28.03
2019-05-14T13:32:21.001Z,28.13
2019-05-14T13:34:55.426Z,28.20
2019-05-14T13:37:29.946Z,28.30
2019-05-14T13:40:04.205Z,28.36
2019-05-14T13:42:40.038Z,28.45
2019-05-14T13:45:15.011Z,28.53
2019-05-14T13:48:03.728Z,28.62
2019-05-14T13:50:39.963Z,28.65
2019-05-14T13:53:14.426Z,28.75
2019-05-14T13:55:57.127Z,28.81
2019-05-14T13:58:24.954Z,28.89
2019-05-14T14:00:59.657Z,28.91
2019-05-14T14:03:34.404Z,28.97
2019-05-14T14:06:11.202Z,29.01
2019-05-14T14:08:49.413Z,28.99
2019-05-14T14:11:21.115Z,29.03
2019-05-14T14:13:58.305Z,29.02
2019-05-14T14:16:31.754Z,29.08
2019-05-14T14:19:08.599Z,29.13
2019-05-14T14:21:42.671Z,29.16
2019-05-14T14:24:19.528Z,29.19
2019-05-14T14:26:53.420Z,29.23
2019-05-14T14:29:28.176Z,29.28
2019-05-14T14:32:02.624Z,29.31
2019-05-14T14:34:40.985Z,29.35
2019-05-14T14:37:12.932Z,29.35
2019-05-14T14:39:48.623Z,29.39
2019-05-14T14:42:23.108Z,29.41
2019-05-14T14:44:59.674Z,29.46
2019-05-14T14:47:33.833Z,29.53
2019-05-14T14:50:30.835Z,29.55
2019-05-14T14:53:09.260Z,29.58
2019-05-14T14:55:49.749Z,29.63
2019-05-14T14:58:23.890Z,29.60
2019-05-14T15:00:59.485Z,29.63
2019-05-14T15:03:33.808Z,29.63
2019-05-14T15:06:09.679Z,29.68
2019-05-14T15:08:49.416Z,29.69
2019-05-14T15:11:22.495Z,29.72
2019-05-14T15:13:58.724Z,29.81
2019-05-14T15:16:32.570Z,29.80
2019-05-14T15:19:09.234Z,29.83
2019-05-14T15:21:42.843Z,29.83
2019-05-14T15:24:19.439Z,29.89
2019-05-14T15:26:52.870Z,29.93
2019-05-14T15:29:28.421Z,29.98
2019-05-14T15:32:03.937Z,30.01
2019-05-14T15:34:38.119Z,30.03
2019-05-14T15:37:12.120Z,30.00
2019-05-14T15:39:48.906Z,30.01
2019-05-14T15:42:22.437Z,30.06
2019-05-14T15:44:59.577Z,30.05
2019-05-14T15:47:33.790Z,30.06
2019-05-14T15:50:09.212Z,30.05
2019-05-14T15:52:43.890Z,30.08
2019-05-14T15:55:18.492Z,30.13
2019-05-14T15:57:53.696Z,30.12
2019-05-14T16:00:29.233Z,30.13
2019-05-14T16:03:03.321Z,30.15
2019-05-14T16:05:39.397Z,30.18
2019-05-14T16:08:13.452Z,30.25
2019-05-14T16:10:47.469Z,30.24
2019-05-14T16:13:21.716Z,30.23
2019-05-14T16:15:55.690Z,30.24
2019-05-14T16:18:29.886Z,30.29
2019-05-14T16:21:03.932Z,30.34
2019-05-14T16:23:39.286Z,30.37
2019-05-14T16:26:13.742Z,30.37
2019-05-14T16:28:48.236Z,30.30
2019-05-14T16:31:22.520Z,28.79
2019-05-14T16:33:56.424Z,27.39
2019-05-14T16:36:30.778Z,26.58
2019-05-14T16:39:05.550Z,26.13
2019-05-14T16:41:39.869Z,25.68
2019-05-14T16:44:14.543Z,25.38
2019-05-14T16:46:48.887Z,25.11
2019-05-14T16:49:23.324Z,24.91
2019-05-14T16:51:59.662Z,24.83
2019-05-14T16:54:39.599Z,24.65
2019-05-14T16:57:13.700Z,24.51
2019-05-14T16:59:49.585Z,24.35
2019-05-14T17:02:24.642Z,24.18
2019-05-14T17:05:00.338Z,24.07
2019-05-14T17:07:38.527Z,23.98
2019-05-14T17:10:12.649Z,23.95
2019-05-14T17:12:53.656Z,23.74
2019-05-14T17:15:23.076Z,23.93
2019-05-14T17:17:59.681Z,23.93
2019-05-14T17:20:32.895Z,24.06
2019-05-14T17:23:09.040Z,24.15
2019-05-14T17:25:43.154Z,24.07
2019-05-14T17:28:20.937Z,24.10
2019-05-14T17:30:55.584Z,24.18
2019-05-14T17:33:30.177Z,24.18
2019-05-14T17:36:04.506Z,24.13
2019-05-14T17:38:39.313Z,24.39
2019-05-14T17:41:13.731Z,24.24
2019-05-14T17:43:49.287Z,24.14
2019-05-14T17:46:23.744Z,24.04
2019-05-14T17:48:59.144Z,24.00
2019-05-14T17:51:33.480Z,23.99
2019-05-14T17:54:09.264Z,23.92
2019-05-14T17:56:43.727Z,23.95
2019-05-14T17:59:19.141Z,24.01
2019-05-14T18:01:53.767Z,23.99
2019-05-14T18:04:28.355Z,24.03
2019-05-14T18:07:02.759Z,24.03
2019-05-14T18:09:40.457Z,24.06
2019-05-14T18:12:22.149Z,24.05
2019-05-14T18:14:58.796Z,24.06
2019-05-14T18:17:32.688Z,24.02
2019-05-14T18:20:08.429Z,24.02
2019-05-14T18:22:42.812Z,23.99
2019-05-14T18:25:19.332Z,24.02
2019-05-14T18:27:54.610Z,23.96
2019-05-14T18:30:29.150Z,23.95
2019-05-14T18:33:03.963Z,23.85
2019-05-14T18:35:47.410Z,23.89
2019-05-14T18:38:20.735Z,23.89
2019-05-14T18:40:55.150Z,23.91
2019-05-14T18:43:30.249Z,24.29
2019-05-14T18:46:04.345Z,24.54
2019-05-14T18:48:38.551Z,24.68
2019-05-14T18:51:12.796Z,24.78
2019-05-14T18:53:48.932Z,24.73
2019-05-14T18:56:24.470Z,24.44
2019-05-14T18:58:59.776Z,24.23
2019-05-14T19:01:33.868Z,24.04
2019-05-14T19:04:08.331Z,23.94
2019-05-14T19:06:42.595Z,23.91
2019-05-14T19:09:18.600Z,23.84
2019-05-14T19:11:53.040Z,23.78
2019-05-14T19:14:29.226Z,23.72
2019-05-14T19:17:03.341Z,23.68
2019-05-14T19:19:38.602Z,23.68
2019-05-14T19:22:13.194Z,23.70
2019-05-14T19:24:49.208Z,23.69
2019-05-14T19:27:23.635Z,23.56
2019-05-14T19:29:59.502Z,23.70
2019-05-14T19:32:34.304Z,23.79
2019-05-14T19:35:08.959Z,23.81
2019-05-14T19:37:43.208Z,23.85
2019-05-14T19:40:18.983Z,23.87
2019-05-14T19:42:56.435Z,23.90
2019-05-14T19:45:30.624Z,23.96
2019-05-14T19:48:04.643Z,23.98
2019-05-14T19:50:39.283Z,23.98
2019-05-14T19:53:14.516Z,23.97
2019-05-14T19:55:48.826Z,23.96
2019-05-14T19:58:25.860Z,23.96
2019-05-14T20:01:00.163Z,23.95
2019-05-14T20:03:34.438Z,23.97
2019-05-14T20:06:09.230Z,23.96
2019-05-14T20:08:43.314Z,23.99
2019-05-14T20:11:19.294Z,23.97
2019-05-14T20:13:53.120Z,24.17
2019-05-14T20:16:28.579Z,24.63
2019-05-14T20:19:03.019Z,24.80
2019-05-14T20:21:38.777Z,24.77
2019-05-14T20:24:12.735Z,24.77
2019-05-14T20:26:48.889Z,24.70
2019-05-14T20:29:22.764Z,24.75
2019-05-14T20:31:59.478Z,24.72
2019-05-14T20:34:32.456Z,24.74
2019-05-14T20:37:08.472Z,24.74
2019-05-14T20:39:41.794Z,24.71
2019-05-14T20:42:18.340Z,24.71
2019-05-14T20:44:51.369Z,24.78
2019-05-14T20:47:25.480Z,24.39
2019-05-14T20:49:59.548Z,23.80
2019-05-14T20:52:33.895Z,23.64
2019-05-14T20:55:09.746Z,23.62
2019-05-14T20:57:43.811Z,23.73
2019-05-14T21:00:19.301Z,23.76
2019-05-14T21:02:53.708Z,23.88
2019-05-14T21:05:28.662Z,24.34
2019-05-14T21:08:03.255Z,23.94
2019-05-14T21:10:38.474Z,23.63
2019-05-14T21:13:12.790Z,23.54
2019-05-14T21:15:48.277Z,23.65
2019-05-14T21:18:34.368Z,23.62
2019-05-14T21:20:58.871Z,23.57
2019-05-14T21:23:33.014Z,23.56
2019-05-14T21:26:08.530Z,23.64
2019-05-14T21:28:42.941Z,23.73
2019-05-14T21:31:18.113Z,24.29
2019-05-14T21:33:54.540Z,24.07
2019-05-14T21:36:28.854Z,23.70
2019-05-14T21:39:02.885Z,23.71
2019-05-14T21:41:38.631Z,23.71
2019-05-14T21:44:12.975Z,23.75
2019-05-14T21:46:48.256Z,23.75
2019-05-14T21:49:22.460Z,23.74
2019-05-14T21:51:58.430Z,23.86
2019-05-14T21:54:33.010Z,24.27
2019-05-14T21:57:08.492Z,23.80
2019-05-14T21:59:43.162Z,23.74
2019-05-14T22:02:26.963Z,23.75
2019-05-14T22:04:55.481Z,23.72
2019-05-14T22:07:30.050Z,23.69
2019-05-14T22:10:04.410Z,23.67
2019-05-14T22:12:39.455Z,23.65
2019-05-14T22:15:14.270Z,24.13
2019-05-14T22:17:49.316Z,24.13
2019-05-14T22:20:23.611Z,23.68
2019-05-14T22:22:59.087Z,23.56
2019-05-14T22:25:34.558Z,23.60
2019-05-14T22:28:14.906Z,23.72
2019-05-14T22:30:44.380Z,23.79
2019-05-14T22:33:19.085Z,23.85
2019-05-14T22:35:53.538Z,23.91
2019-05-14T22:38:29.341Z,24.35
2019-05-14T22:41:04.837Z,23.92
2019-05-14T22:43:39.016Z,23.51
2019-05-14T22:46:13.344Z,23.62
2019-05-14T22:48:51.262Z,23.73
2019-05-14T22:51:23.415Z,23.73
2019-05-14T22:53:58.969Z,23.63
2019-05-14T22:56:33.284Z,23.63
2019-05-14T22:59:07.275Z,23.89
2019-05-14T23:01:41.512Z,24.22
2019-05-14T23:04:15.481Z,23.61
2019-05-14T23:06:49.737Z,23.58
2019-05-14T23:09:23.927Z,23.62
2019-05-14T23:11:58.924Z,23.62
2019-05-14T23:14:33.415Z,23.65
2019-05-14T23:17:08.198Z,23.63
2019-05-14T23:19:42.665Z,23.60
2019-05-14T23:22:18.576Z,23.96
2019-05-14T23:24:52.902Z,23.86
2019-05-14T23:27:29.223Z,23.43
2019-05-14T23:30:06.985Z,23.53
2019-05-14T23:32:41.756Z,23.61
2019-05-14T23:35:18.478Z,23.60
2019-05-14T23:37:51.810Z,23.62
2019-05-14T23:40:26.087Z,23.60
2019-05-14T23:43:00.263Z,23.59
2019-05-14T23:45:34.457Z,24.08
2019-05-14T23:48:09.498Z,23.67
2019-05-14T23:50:43.692Z,23.40
2019-05-14T23:53:18.393Z,23.55
2019-05-14T23:55:52.767Z,23.52
2019-05-14T23:58:28.966Z,23.55
